Time;durP1;ratioP1;P1;durP2;ratioP2;P2;SDS_P1;SDS_P2;PMS_P1;PMS_P2;Temp;Humidity;BMP_temperature;BMP_pressure;BME280_temperature;BME280_humidity;BME280_pressure;Samples;Min_cycle;Max_cycle;Signal;HPM_P1;HPM_P2
2023/11/16 00:03:37;;;;;;;8.38;2.00;;;16.10;78.60;;;;;;10408883;28;20052;-57
2023/11/16 00:08:38;;;;;;;4.40;1.58;;;16.10;78.60;;;;;;10408539;28;20034;-57
2023/11/16 00:13:38;;;;;;;2.65;1.00;;;16.10;78.50;;;;;;10408183;28;20361;-57
2023/11/16 00:18:41;;;;;;;2.90;1.63;;;16.10;78.50;;;;;;10408678;28;20025;-57
2023/11/16 00:23:42;;;;;;;3.35;1.42;;;16.00;78.40;;;;;;10407884;28;20044;-57
2023/11/16 00:28:42;;;;;;;2.78;1.10;;;16.00;78.40;;;;;;10417053;28;20572;-57
2023/11/16 00:33:45;;;;;;;4.60;1.52;;;16.00;78.40;;;;;;10426908;28;20032;-56
2023/11/16 00:38:47;;;;;;;2.75;1.50;;;16.00;78.30;;;;;;10416229;28;20481;-57
2023/11/16 00:43:48;;;;;;;4.20;1.13;;;16.00;78.40;;;;;;10415563;28;20082;-57
2023/11/16 00:48:48;;;;;;;4.28;1.20;;;16.00;78.30;;;;;;10415878;28;20489;-57
2023/11/16 00:53:49;;;;;;;4.40;1.50;;;16.00;78.40;;;;;;10415322;28;20029;-57
2023/11/16 00:58:50;;;;;;;3.97;2.03;;;16.00;78.30;;;;;;10415485;28;20067;-57
2023/11/16 01:03:51;;;;;;;3.03;0.90;;;16.00;78.30;;;;;;10414825;28;20037;-57
2023/11/16 01:08:51;;;;;;;2.65;1.85;;;16.00;78.30;;;;;;10415021;28;20079;-58
2023/11/16 01:13:52;;;;;;;4.88;1.00;;;16.00;78.40;;;;;;10414440;28;20033;-57
2023/11/16 01:18:54;;;;;;;4.15;1.17;;;16.00;78.40;;;;;;10414619;28;20018;-57
2023/11/16 01:24:02;;;;;;;2.97;1.10;;;15.90;78.40;;;;;;10414043;28;20041;-57
2023/11/16 01:29:08;;;;;;;3.08;1.60;;;16.00;78.30;;;;;;10414192;28;20053;-57
2023/11/16 01:34:14;;;;;;;6.57;1.67;;;15.90;78.20;;;;;;10413911;28;20464;-57
2023/11/16 01:39:14;;;;;;;4.00;1.10;;;15.90;78.20;;;;;;10412805;28;20112;-57
2023/11/16 01:44:15;;;;;;;5.30;1.33;;;15.90;78.20;;;;;;10413364;28;20535;-57
2023/11/16 01:49:16;;;;;;;3.58;0.88;;;15.90;78.20;;;;;;10413405;28;20469;-57
2023/11/16 01:54:17;;;;;;;2.00;0.80;;;15.90;78.10;;;;;;10412765;28;20034;-57
2023/11/16 01:59:19;;;;;;;4.82;1.30;;;15.90;78.20;;;;;;10413223;28;20017;-57
2023/11/16 02:04:22;;;;;;;2.38;1.10;;;15.90;78.10;;;;;;10411396;28;20021;-57
2023/11/16 02:09:23;;;;;;;3.30;1.13;;;15.90;78.20;;;;;;10444928;28;20033;-57
2023/11/16 02:14:23;;;;;;;3.50;1.00;;;15.90;78.10;;;;;;10411073;28;20029;-57
2023/11/16 02:19:33;;;;;;;4.90;1.25;;;15.90;78.20;;;;;;10412497;28;20029;-57
2023/11/16 02:24:33;;;;;;;1.95;1.00;;;15.90;78.20;;;;;;10411877;28;20033;-57
2023/11/16 02:29:35;;;;;;;2.08;1.05;;;15.90;78.20;;;;;;10420840;28;20041;-56
2023/11/16 02:34:37;;;;;;;3.45;1.50;;;15.80;78.10;;;;;;10414781;28;20513;-57
2023/11/16 02:39:38;;;;;;;2.70;0.90;;;15.90;78.20;;;;;;10411448;28;20033;-57
2023/11/16 02:44:42;;;;;;;4.05;1.25;;;15.80;78.20;;;;;;10411327;28;20473;-57
2023/11/16 02:49:42;;;;;;;2.33;0.70;;;15.80;78.10;;;;;;10410973;28;20033;-57
2023/11/16 02:54:43;;;;;;;3.88;1.50;;;15.80;78.10;;;;;;10410044;28;20033;-57
2023/11/16 02:59:45;;;;;;;3.00;0.93;;;15.80;78.10;;;;;;10410687;28;20399;-57
2023/11/16 03:04:45;;;;;;;3.10;0.90;;;15.80;78.20;;;;;;10410224;28;20606;-57
2023/11/16 03:09:46;;;;;;;1.63;0.90;;;15.80;78.20;;;;;;10410087;28;20038;-56
2023/11/16 03:14:47;;;;;;;1.70;0.75;;;15.80;78.20;;;;;;10409843;28;20056;-57
2023/11/16 03:19:47;;;;;;;2.47;0.73;;;15.80;78.20;;;;;;10409980;28;20034;-57
2023/11/16 03:24:48;;;;;;;4.65;1.58;;;15.80;78.20;;;;;;10409498;28;20600;-56
2023/11/16 03:29:49;;;;;;;1.35;0.80;;;15.80;78.20;;;;;;10409711;28;20527;-57
2023/11/16 03:34:50;;;;;;;2.95;0.90;;;15.80;78.20;;;;;;10409051;28;20061;-57
2023/11/16 03:39:50;;;;;;;3.25;0.95;;;15.80;78.20;;;;;;10409501;28;20501;-57
2023/11/16 03:44:51;;;;;;;1.77;1.10;;;15.80;78.20;;;;;;10408967;28;20044;-57
2023/11/16 03:49:52;;;;;;;2.47;1.02;;;15.80;78.20;;;;;;10409168;28;20029;-57
2023/11/16 03:54:52;;;;;;;1.70;0.60;;;15.80;78.10;;;;;;10408627;28;20030;-57
2023/11/16 03:59:53;;;;;;;1.40;0.80;;;15.80;78.10;;;;;;10411036;28;20033;-57
2023/11/16 04:04:54;;;;;;;2.13;1.05;;;15.70;78.00;;;;;;10422290;28;20457;-57
2023/11/16 04:09:54;;;;;;;2.88;0.88;;;15.70;78.00;;;;;;10422130;28;20396;-57
2023/11/16 04:14:55;;;;;;;1.60;0.70;;;15.70;78.00;;;;;;10440361;28;20559;-57
2023/11/16 04:19:57;;;;;;;2.42;0.80;;;15.70;77.90;;;;;;10440779;28;20025;-57
2023/11/16 04:24:58;;;;;;;2.25;1.00;;;15.70;77.80;;;;;;10439398;28;20028;-57
2023/11/16 04:29:59;;;;;;;1.50;0.52;;;15.70;77.90;;;;;;10423392;28;20057;-57
2023/11/16 04:35:00;;;;;;;4.10;0.73;;;15.70;77.70;;;;;;10439569;28;20029;-57
2023/11/16 04:40:01;;;;;;;1.48;0.70;;;15.80;78.30;;;;;;10437505;28;20025;-57
2023/11/16 04:45:03;;;;;;;1.80;0.68;;;15.80;78.40;;;;;;10437185;28;20079;-58
2023/11/16 04:50:06;;;;;;;2.80;0.85;;;15.80;78.20;;;;;;10433616;28;20075;-57
2023/11/16 04:55:07;;;;;;;1.85;0.60;;;15.80;78.30;;;;;;10438769;28;20028;-57
2023/11/16 05:00:12;;;;;;;3.60;0.73;;;15.80;78.30;;;;;;10428826;28;20116;-58
2023/11/16 05:05:12;;;;;;;2.08;0.95;;;15.80;78.20;;;;;;10421236;28;20033;-57
2023/11/16 05:10:16;;;;;;;1.23;0.52;;;15.80;78.30;;;;;;10421367;28;20033;-57
2023/11/16 05:15:16;;;;;;;2.03;1.00;;;15.70;78.30;;;;;;10414295;28;20045;-57
2023/11/16 05:20:17;;;;;;;1.60;0.70;;;15.70;78.20;;;;;;10420508;28;20034;-58
2023/11/16 05:25:18;;;;;;;2.38;1.00;;;15.70;78.20;;;;;;10413997;28;20038;-57
2023/11/16 05:30:18;;;;;;;1.20;0.60;;;15.70;78.10;;;;;;10414311;28;20060;-57
2023/11/16 05:35:19;;;;;;;2.90;0.70;;;15.70;78.10;;;;;;10414044;28;20045;-57
2023/11/16 05:40:20;;;;;;;1.70;0.68;;;15.70;78.10;;;;;;10413450;28;20021;-57
2023/11/16 05:45:21;;;;;;;1.77;0.77;;;15.80;78.10;;;;;;10413843;28;20041;-57
2023/11/16 05:50:24;;;;;;;2.60;0.80;;;16.00;77.30;;;;;;10413092;28;20034;-57
2023/11/16 05:55:26;;;;;;;1.13;0.60;;;16.30;76.20;;;;;;10413309;28;20457;-57
2023/11/16 06:00:27;;;;;;;1.60;0.80;;;16.50;75.20;;;;;;10412724;28;20030;-57
2023/11/16 06:05:28;;;;;;;1.20;0.40;;;16.80;74.30;;;;;;10412849;28;20037;-56
2023/11/16 06:10:28;;;;;;;2.90;1.20;;;17.00;73.50;;;;;;10412239;28;20044;-57
2023/11/16 06:15:29;;;;;;;2.05;0.80;;;17.10;73.30;;;;;;10411267;28;20385;-56
2023/11/16 06:20:30;;;;;;;2.90;0.77;;;17.40;73.10;;;;;;10409583;28;20030;-58
2023/11/16 06:25:30;;;;;;;4.45;0.75;;;17.50;73.20;;;;;;10408328;28;20116;-57
2023/11/16 06:30:31;;;;;;;9.45;1.23;;;17.60;72.90;;;;;;10408639;28;20072;-55
2023/11/16 06:35:32;;;;;;;7.18;1.42;;;17.60;72.80;;;;;;10408390;28;20029;-57
2023/11/16 06:40:34;;;;;;;12.38;1.80;;;17.70;72.60;;;;;;10407918;28;20028;-56
2023/11/16 06:45:39;;;;;;;16.58;2.40;;;17.60;72.80;;;;;;10405793;28;20045;-61
2023/11/16 06:50:40;;;;;;;15.65;2.60;;;17.80;72.10;;;;;;10404778;28;20041;-59
2023/11/16 06:55:43;;;;;;;14.13;2.30;;;17.80;72.10;;;;;;10410171;28;20029;-57
2023/11/16 07:00:44;;;;;;;12.60;2.50;;;17.90;71.70;;;;;;10407766;28;20385;-58
2023/11/16 07:05:44;;;;;;;23.30;3.95;;;18.00;71.50;;;;;;10407578;28;20030;-60
2023/11/16 07:10:45;;;;;;;19.45;3.05;;;18.00;71.50;;;;;;10405314;28;20037;-58
2023/11/16 07:15:48;;;;;;;12.05;2.35;;;17.80;71.70;;;;;;10408130;28;20033;-57
2023/11/16 07:20:49;;;;;;;13.82;2.58;;;17.80;71.40;;;;;;10406820;28;20095;-58
2023/11/16 07:25:50;;;;;;;15.15;2.70;;;17.70;71.90;;;;;;10408175;28;20037;-58
2023/11/16 07:30:52;;;;;;;12.95;2.90;;;17.50;72.10;;;;;;10408485;28;20058;-58
2023/11/16 07:35:53;;;;;;;8.13;2.28;;;17.40;72.90;;;;;;10406881;28;20029;-58
2023/11/16 07:40:57;;;;;;;10.23;2.15;;;17.30;72.60;;;;;;10407472;28;20030;-57
2023/11/16 07:45:57;;;;;;;13.02;1.80;;;17.20;73.50;;;;;;10408202;28;20465;-58
2023/11/16 07:50:58;;;;;;;6.22;2.00;;;17.10;73.20;;;;;;10406733;28;20064;-58
2023/11/16 07:56:05;;;;;;;5.45;1.55;;;17.00;73.50;;;;;;10407648;28;20048;-58
2023/11/16 08:01:11;;;;;;;7.13;1.50;;;16.90;73.70;;;;;;10407210;28;20026;-58
2023/11/16 08:06:14;;;;;;;7.78;1.73;;;16.80;74.00;;;;;;10407720;28;20477;-58
2023/11/16 08:11:15;;;;;;;5.45;1.95;;;16.70;74.10;;;;;;10407128;28;20018;-58
2023/11/16 08:16:21;;;;;;;4.35;1.48;;;16.70;74.20;;;;;;10407643;28;20026;-57
2023/11/16 08:21:21;;;;;;;4.30;1.95;;;16.60;74.30;;;;;;10407327;28;20022;-58
2023/11/16 08:26:22;;;;;;;5.43;1.55;;;16.50;74.90;;;;;;10406160;28;20489;-59
2023/11/16 08:31:24;;;;;;;5.25;1.73;;;16.50;74.50;;;;;;10407385;28;20077;-58
2023/11/16 08:36:25;;;;;;;3.58;1.60;;;16.50;74.70;;;;;;10407265;28;20052;-58
2023/11/16 08:41:28;;;;;;;7.65;2.00;;;16.40;74.60;;;;;;10406715;28;20022;-58
2023/11/16 08:46:32;;;;;;;4.13;1.77;;;16.40;75.30;;;;;;10408525;28;20037;-58
2023/11/16 08:51:33;;;;;;;6.70;2.05;;;16.30;74.70;;;;;;10414498;28;20025;-58
2023/11/16 08:56:35;;;;;;;5.18;1.75;;;16.30;74.80;;;;;;10414306;28;20103;-58
2023/11/16 09:01:39;;;;;;;5.22;2.17;;;16.30;74.90;;;;;;10413634;28;20029;-58
2023/11/16 09:06:43;;;;;;;5.25;1.58;;;16.30;74.90;;;;;;10413993;28;20037;-57
2023/11/16 09:11:46;;;;;;;4.00;1.63;;;16.20;74.80;;;;;;10413577;28;20090;-59
2023/11/16 09:16:49;;;;;;;4.80;2.17;;;16.20;74.90;;;;;;10412218;28;20033;-58
2023/11/16 09:21:51;;;;;;;3.40;1.35;;;16.20;75.00;;;;;;10412846;28;20064;-58
2023/11/16 09:26:55;;;;;;;3.60;2.28;;;16.20;75.10;;;;;;10413421;28;20244;-58
2023/11/16 09:31:55;;;;;;;5.68;2.20;;;16.20;75.10;;;;;;10425661;28;20132;-58
2023/11/16 09:37:01;;;;;;;3.83;1.60;;;16.10;75.10;;;;;;10412430;28;20030;-58
2023/11/16 09:42:07;;;;;;;3.92;2.00;;;16.10;75.10;;;;;;10412340;28;20033;-58
2023/11/16 09:47:25;;;;;;;4.05;1.73;;;16.10;75.20;;;;;;10411490;28;20033;-58
2023/11/16 09:52:28;;;;;;;3.22;1.92;;;16.10;75.10;;;;;;10410383;28;20045;-57
2023/11/16 09:57:40;;;;;;;3.45;1.85;;;16.10;75.10;;;;;;10410481;28;20485;-58
2023/11/16 10:02:43;;;;;;;4.43;2.28;;;16.00;75.20;;;;;;10411827;28;20033;-57
2023/11/16 10:07:46;;;;;;;3.60;1.90;;;16.00;75.70;;;;;;10411538;28;20034;-58
2023/11/16 10:12:50;;;;;;;5.63;2.20;;;16.00;75.20;;;;;;10409870;28;20511;-57
2023/11/16 10:17:51;;;;;;;6.90;2.55;;;16.00;75.10;;;;;;10411522;28;20041;-58
2023/11/16 10:22:54;;;;;;;10.43;3.05;;;16.00;75.20;;;;;;10410700;28;20114;-58
2023/11/16 10:27:55;;;;;;;4.93;2.20;;;15.90;75.30;;;;;;10411211;28;20033;-58
2023/11/16 10:32:56;;;;;;;5.63;2.42;;;15.90;75.30;;;;;;10422269;28;20393;-59
2023/11/16 10:37:57;;;;;;;4.70;2.40;;;15.90;75.30;;;;;;10410681;28;20112;-58
2023/11/16 10:42:59;;;;;;;4.20;2.70;;;15.90;75.50;;;;;;10410248;28;20022;-59
2023/11/16 10:48:00;;;;;;;4.35;2.25;;;15.90;75.30;;;;;;10408653;28;20045;-59
2023/11/16 10:53:05;;;;;;;4.47;3.15;;;15.90;75.20;;;;;;10408585;28;20373;-58
2023/11/16 10:58:05;;;;;;;5.72;2.65;;;15.90;75.30;;;;;;10408338;28;20026;-58
2023/11/16 11:03:08;;;;;;;4.65;2.50;;;15.80;75.40;;;;;;10407831;28;20033;-59
2023/11/16 11:08:10;;;;;;;5.13;2.53;;;15.80;75.30;;;;;;10408328;28;20037;-58
2023/11/16 11:13:11;;;;;;;5.25;2.60;;;15.80;75.30;;;;;;10408943;28;20033;-59
2023/11/16 11:18:26;;;;;;;4.53;3.05;;;15.80;75.30;;;;;;10409187;28;20065;-58
2023/11/16 11:23:27;;;;;;;3.58;2.15;;;15.80;75.20;;;;;;10408420;28;20025;-58
2023/11/16 11:28:27;;;;;;;3.80;2.20;;;15.80;75.30;;;;;;10409151;28;20021;-59
2023/11/16 11:33:41;;;;;;;4.63;2.22;;;15.80;75.50;;;;;;10407338;28;20057;-58
2023/11/16 11:38:50;;;;;;;5.85;1.95;;;15.80;75.40;;;;;;10408150;28;20535;-59
2023/11/16 11:43:51;;;;;;;4.97;2.37;;;15.80;75.50;;;;;;10406662;28;20033;-59
2023/11/16 11:48:54;;;;;;;4.18;2.30;;;15.80;75.50;;;;;;10408136;28;20029;-59
2023/11/16 11:53:55;;;;;;;4.47;2.50;;;15.80;75.50;;;;;;10406103;28;20037;-58
2023/11/16 11:58:58;;;;;;;4.22;2.38;;;15.90;79.00;;;;;;10407957;28;20029;-57
2023/11/16 12:04:03;;;;;;;4.25;2.33;;;16.00;78.20;;;;;;10408077;28;20045;-58
2023/11/16 12:09:06;;;;;;;4.25;2.10;;;16.00;77.70;;;;;;10407265;28;20377;-58
2023/11/16 12:14:09;;;;;;;4.35;2.30;;;16.00;77.50;;;;;;10406968;28;20408;-58
2023/11/16 12:19:11;;;;;;;4.95;1.70;;;16.00;77.30;;;;;;10407604;28;20057;-59
2023/11/16 12:24:12;;;;;;;4.00;1.80;;;16.00;77.20;;;;;;10413340;28;20083;-59
2023/11/16 12:29:17;;;;;;;4.82;1.90;;;15.90;77.00;;;;;;10416567;28;20068;-58
2023/11/16 12:34:18;;;;;;;4.10;2.05;;;15.90;77.00;;;;;;10415223;28;20120;-58
2023/11/16 12:39:19;;;;;;;3.78;1.88;;;15.90;76.90;;;;;;10415545;28;20033;-59
2023/11/16 12:44:20;;;;;;;3.53;1.70;;;15.90;76.90;;;;;;10413580;28;20029;-58
2023/11/16 12:49:21;;;;;;;3.28;1.80;;;15.90;76.90;;;;;;10414862;28;20365;-59
2023/11/16 12:54:22;;;;;;;3.17;1.90;;;15.80;76.80;;;;;;10414260;28;20053;-58
2023/11/16 12:59:23;;;;;;;3.05;2.25;;;15.80;76.80;;;;;;10413068;28;20018;-58
2023/11/16 13:04:25;;;;;;;4.18;2.13;;;15.80;76.80;;;;;;10413864;28;20037;-59
2023/11/16 13:09:25;;;;;;;2.72;2.13;;;15.80;76.80;;;;;;10413793;28;20034;-57
2023/11/16 13:14:26;;;;;;;2.80;1.80;;;15.80;76.70;;;;;;10413647;28;20408;-58
2023/11/16 13:19:27;;;;;;;2.97;1.90;;;15.80;76.70;;;;;;10413621;28;20033;-59
2023/11/16 13:24:27;;;;;;;3.13;1.70;;;15.80;76.60;;;;;;10413019;28;20048;-58
2023/11/16 13:29:28;;;;;;;2.53;1.75;;;15.80;76.50;;;;;;10421608;28;20101;-59
2023/11/16 13:34:29;;;;;;;2.80;1.38;;;15.80;76.50;;;;;;10416144;28;20063;-58
2023/11/16 13:39:31;;;;;;;2.95;1.80;;;15.70;76.40;;;;;;10412729;28;20053;-58
2023/11/16 13:44:32;;;;;;;3.40;1.85;;;15.70;76.40;;;;;;10412633;28;20404;-59
2023/11/16 13:49:33;;;;;;;4.88;2.13;;;15.70;76.30;;;;;;10413004;28;20036;-59
2023/11/16 13:54:34;;;;;;;2.83;1.50;;;15.70;76.40;;;;;;10411875;28;20029;-59
2023/11/16 13:59:35;;;;;;;3.55;1.73;;;15.70;76.30;;;;;;10412115;28;20033;-59
2023/11/16 14:04:35;;;;;;;3.72;1.83;;;15.70;76.20;;;;;;10410520;28;20079;-59
2023/11/16 14:09:38;;;;;;;2.83;1.70;;;15.70;76.30;;;;;;10411720;28;20036;-58
2023/11/16 14:14:40;;;;;;;3.83;1.60;;;15.70;76.30;;;;;;10411530;28;20467;-59
2023/11/16 14:19:41;;;;;;;3.33;1.55;;;15.70;76.10;;;;;;10410310;28;20120;-59
2023/11/16 14:24:46;;;;;;;3.83;2.33;;;15.60;76.00;;;;;;10410509;28;20056;-59
2023/11/16 14:29:47;;;;;;;5.00;2.10;;;15.60;76.00;;;;;;10409940;28;20104;-58
2023/11/16 14:34:48;;;;;;;2.83;2.22;;;15.60;76.00;;;;;;10410392;28;20044;-59
2023/11/16 14:39:49;;;;;;;2.10;1.23;;;15.70;76.10;;;;;;10410696;28;20039;-58
2023/11/16 14:44:51;;;;;;;3.30;1.70;;;15.60;76.10;;;;;;10409208;28;20051;-58
2023/11/16 14:49:52;;;;;;;4.25;1.58;;;15.60;76.00;;;;;;10410410;28;20037;-59
2023/11/16 14:54:53;;;;;;;4.72;1.40;;;15.60;76.00;;;;;;10409785;28;20025;-59
2023/11/16 14:59:54;;;;;;;2.65;1.30;;;15.60;75.90;;;;;;10409826;28;20479;-59
2023/11/16 15:04:55;;;;;;;2.92;1.58;;;15.60;75.80;;;;;;10409031;28;20029;-59
2023/11/16 15:09:55;;;;;;;2.50;1.40;;;15.60;75.80;;;;;;10409270;28;20481;-59
2023/11/16 15:14:56;;;;;;;3.20;1.63;;;15.60;75.70;;;;;;10408669;28;20827;-59
2023/11/16 15:19:57;;;;;;;2.65;1.40;;;15.50;75.50;;;;;;10409207;28;20417;-58
2023/11/16 15:24:58;;;;;;;1.88;1.10;;;15.50;75.30;;;;;;10408908;28;20041;-58
2023/11/16 15:30:01;;;;;;;2.55;1.45;;;15.60;75.60;;;;;;10408946;28;20053;-58
2023/11/16 15:35:03;;;;;;;2.83;1.48;;;15.90;74.70;;;;;;10408157;28;20052;-58
2023/11/16 15:40:04;;;;;;;2.47;1.23;;;16.30;73.20;;;;;;10408340;28;20523;-59
2023/11/16 15:45:07;;;;;;;2.47;1.45;;;16.60;72.20;;;;;;10408195;28;20057;-58
2023/11/16 15:50:08;;;;;;;4.72;1.90;;;16.90;71.20;;;;;;10408091;28;20075;-59
2023/11/16 15:55:10;;;;;;;2.90;1.38;;;17.10;70.30;;;;;;10407124;28;20029;-57
2023/11/16 16:00:18;;;;;;;1.45;1.10;;;17.40;69.60;;;;;;10407326;28;20025;-58
2023/11/16 16:05:20;;;;;;;1.88;1.38;;;17.50;69.10;;;;;;10413867;28;20037;-58
2023/11/16 16:10:21;;;;;;;5.35;1.42;;;17.50;68.90;;;;;;10404700;28;20230;-61
2023/11/16 16:15:21;;;;;;;3.42;1.15;;;17.50;69.30;;;;;;10408138;28;20048;-58
2023/11/16 16:20:22;;;;;;;3.13;1.38;;;17.60;69.20;;;;;;10406375;28;20026;-58
2023/11/16 16:25:23;;;;;;;3.83;1.30;;;17.70;69.00;;;;;;10404813;28;20055;-58
2023/11/16 16:30:23;;;;;;;2.67;1.30;;;17.70;68.80;;;;;;10405687;28;20053;-58
2023/11/16 16:35:25;;;;;;;2.30;1.38;;;17.80;69.40;;;;;;10404964;28;20095;-57
2023/11/16 16:40:26;;;;;;;2.28;1.17;;;17.80;68.80;;;;;;10405030;28;20120;-58
2023/11/16 16:45:26;;;;;;;3.08;1.23;;;17.90;68.70;;;;;;10404715;28;20432;-58
2023/11/16 16:50:27;;;;;;;5.03;1.30;;;17.90;68.70;;;;;;10405160;28;20120;-57
2023/11/16 16:55:28;;;;;;;8.90;2.40;;;17.90;69.10;;;;;;10404073;28;20041;-58
2023/11/16 17:00:29;;;;;;;14.23;2.58;;;18.00;69.70;;;;;;10399527;28;20025;-58
2023/11/16 17:05:30;;;;;;;11.23;2.38;;;18.00;69.70;;;;;;10404206;28;20037;-59
2023/11/16 17:10:30;;;;;;;18.98;2.85;;;18.10;69.40;;;;;;10412580;28;20102;-58
2023/11/16 17:15:32;;;;;;;7.60;1.95;;;18.10;69.70;;;;;;10413531;28;20029;-58
2023/11/16 17:20:33;;;;;;;12.73;3.15;;;18.10;70.00;;;;;;10414616;28;20033;-57
2023/11/16 17:25:34;;;;;;;10.27;2.17;;;18.30;72.00;;;;;;10413569;28;20037;-55
2023/11/16 17:30:35;;;;;;;13.40;3.08;;;18.20;72.60;;;;;;10414061;28;20037;-57
2023/11/16 17:35:36;;;;;;;18.85;3.08;;;17.90;73.30;;;;;;10413806;28;20463;-59
2023/11/16 17:40:36;;;;;;;23.17;3.78;;;17.70;74.30;;;;;;10414157;28;20022;-58
2023/11/16 17:45:37;;;;;;;15.80;3.67;;;17.60;74.00;;;;;;10412863;28;20033;-59
2023/11/16 17:50:38;;;;;;;25.73;3.90;;;17.60;73.90;;;;;;10444712;28;20030;-59
2023/11/16 17:55:39;;;;;;;28.95;3.75;;;17.60;73.90;;;;;;10412411;28;20499;-59
2023/11/16 18:00:40;;;;;;;15.50;3.10;;;17.50;74.30;;;;;;10413442;28;20033;-61
2023/11/16 18:05:42;;;;;;;22.00;4.88;;;17.40;74.30;;;;;;10394471;28;20028;-62
2023/11/16 18:10:48;;;;;;;20.63;3.35;;;17.40;74.10;;;;;;10411763;28;20048;-59
2023/11/16 18:15:49;;;;;;;13.05;3.15;;;17.40;73.60;;;;;;10412447;28;20040;-60
2023/11/16 18:20:52;;;;;;;18.27;3.60;;;17.40;73.60;;;;;;10411829;28;20031;-63
2023/11/16 18:25:55;;;;;;;14.18;3.13;;;17.30;73.70;;;;;;10443678;28;20033;-59
2023/11/16 18:30:56;;;;;;;17.75;2.92;;;17.20;73.70;;;;;;10411919;28;20053;-59
2023/11/16 18:35:59;;;;;;;9.63;2.58;;;17.20;73.70;;;;;;10411523;28;20051;-59
2023/11/16 18:41:01;;;;;;;11.68;2.88;;;17.20;73.30;;;;;;10411727;28;20033;-59
2023/11/16 18:46:03;;;;;;;9.65;2.55;;;17.20;73.10;;;;;;10411073;28;20044;-59
2023/11/16 18:51:04;;;;;;;12.30;3.42;;;17.20;72.90;;;;;;10411246;28;20037;-59
2023/11/16 18:56:08;;;;;;;8.15;2.60;;;17.30;72.80;;;;;;10410557;28;20370;-59
2023/11/16 19:01:10;;;;;;;8.35;2.10;;;17.20;72.90;;;;;;10410856;28;20095;-59
2023/11/16 19:06:11;;;;;;;7.65;2.22;;;17.20;72.90;;;;;;10409903;28;20108;-58
2023/11/16 19:11:12;;;;;;;7.07;2.50;;;17.20;72.90;;;;;;10410217;28;20481;-58
2023/11/16 19:16:12;;;;;;;8.75;1.85;;;17.30;72.50;;;;;;10410362;28;20116;-59
2023/11/16 19:21:16;;;;;;;10.60;2.70;;;17.30;72.40;;;;;;10410054;28;20032;-59
2023/11/16 19:26:17;;;;;;;10.27;2.38;;;17.20;72.80;;;;;;10402160;28;20045;-59
2023/11/16 19:31:18;;;;;;;8.23;1.60;;;17.30;72.20;;;;;;10412655;28;20476;-59
2023/11/16 19:36:19;;;;;;;6.88;1.90;;;17.30;72.00;;;;;;10408696;28;20045;-59
2023/11/16 19:41:22;;;;;;;18.77;3.08;;;17.30;72.00;;;;;;10406955;28;20044;-58
2023/11/16 19:46:26;;;;;;;10.50;2.25;;;17.30;72.00;;;;;;10407732;28;20890;-58
2023/11/16 19:51:28;;;;;;;4.90;1.80;;;17.30;72.10;;;;;;10405658;28;20493;-59
2023/11/16 19:56:29;;;;;;;3.70;1.60;;;17.40;71.90;;;;;;10413965;28;20037;-58
2023/11/16 20:01:31;;;;;;;3.72;2.08;;;17.40;72.10;;;;;;10413358;28;20472;-59
2023/11/16 20:06:31;;;;;;;8.63;3.00;;;17.30;72.10;;;;;;10409081;28;20025;-59
2023/11/16 20:11:32;;;;;;;6.20;1.55;;;17.30;72.10;;;;;;10408328;28;20028;-59
2023/11/16 20:16:33;;;;;;;3.70;1.60;;;17.20;72.30;;;;;;10408744;28;20036;-59
2023/11/16 20:21:37;;;;;;;3.78;1.92;;;17.10;72.50;;;;;;10408324;28;20461;-59
2023/11/16 20:26:38;;;;;;;5.78;1.52;;;17.00;72.80;;;;;;10408092;28;20505;-59
2023/11/16 20:31:40;;;;;;;4.00;1.55;;;16.90;73.00;;;;;;10420879;28;20048;-59
2023/11/16 20:36:40;;;;;;;6.22;1.98;;;16.90;73.20;;;;;;10407365;28;20041;-59
2023/11/16 20:41:41;;;;;;;3.33;1.60;;;16.80;73.50;;;;;;10414476;28;20112;-59
2023/11/16 20:46:42;;;;;;;3.42;1.55;;;16.70;73.60;;;;;;10428793;28;20025;-59
2023/11/16 20:51:43;;;;;;;3.05;1.55;;;16.60;73.80;;;;;;10431107;28;20535;-59
2023/11/16 20:56:44;;;;;;;2.63;1.60;;;16.60;73.90;;;;;;10424469;28;20033;-59
2023/11/16 21:01:44;;;;;;;2.97;1.50;;;16.50;74.00;;;;;;10420210;28;20029;-59
2023/11/16 21:06:45;;;;;;;3.53;2.05;;;16.50;74.10;;;;;;10414238;28;20476;-59
2023/11/16 21:11:46;;;;;;;2.78;1.63;;;16.40;74.10;;;;;;10414735;28;20026;-59
2023/11/16 21:16:47;;;;;;;3.65;1.67;;;16.40;74.20;;;;;;10414909;28;20092;-59
2023/11/16 21:21:48;;;;;;;4.05;1.45;;;16.30;74.20;;;;;;10414718;28;20030;-59
2023/11/16 21:26:49;;;;;;;4.10;1.60;;;16.30;74.20;;;;;;10414619;28;20112;-59
2023/11/16 21:31:49;;;;;;;3.67;1.60;;;16.30;74.40;;;;;;10414597;28;20057;-59
2023/11/16 21:36:50;;;;;;;3.97;1.60;;;16.20;74.30;;;;;;10413419;28;20026;-59
2023/11/16 21:41:51;;;;;;;2.75;1.52;;;16.20;74.40;;;;;;10413760;28;20105;-59
2023/11/16 21:46:53;;;;;;;3.30;1.60;;;16.20;74.40;;;;;;10414067;28;20029;-59
2023/11/16 21:51:55;;;;;;;2.38;1.50;;;16.10;74.40;;;;;;10413382;28;20564;-59
2023/11/16 21:56:55;;;;;;;3.47;1.63;;;16.10;74.30;;;;;;10412611;28;20601;-59
2023/11/16 22:01:56;;;;;;;4.18;2.25;;;16.00;74.30;;;;;;10444991;28;20033;-59
2023/11/16 22:06:57;;;;;;;2.33;1.25;;;16.00;74.40;;;;;;10413374;28;20033;-59
2023/11/16 22:11:57;;;;;;;2.90;1.60;;;16.00;74.40;;;;;;10412647;28;20043;-59
2023/11/16 22:16:58;;;;;;;4.15;1.55;;;15.90;74.40;;;;;;10412928;28;20041;-59
2023/11/16 22:21:59;;;;;;;3.63;1.20;;;15.90;74.60;;;;;;10412253;28;20053;-58
2023/11/16 22:27:00;;;;;;;3.78;1.63;;;15.90;74.50;;;;;;10411111;28;20030;-58
2023/11/16 22:32:00;;;;;;;3.20;1.67;;;15.90;74.50;;;;;;10411823;28;20050;-59
2023/11/16 22:37:01;;;;;;;4.15;2.28;;;15.80;74.40;;;;;;10411977;28;20029;-58
2023/11/16 22:42:02;;;;;;;2.47;1.55;;;15.80;74.40;;;;;;10411646;28;20025;-58
2023/11/16 22:47:06;;;;;;;2.05;1.23;;;15.80;74.40;;;;;;10412059;28;20481;-58
2023/11/16 22:52:07;;;;;;;2.25;1.45;;;15.80;74.40;;;;;;10411279;28;20087;-58
2023/11/16 22:57:08;;;;;;;3.63;1.38;;;15.80;74.30;;;;;;10411153;28;20198;-58
2023/11/16 23:02:09;;;;;;;3.70;1.88;;;15.80;74.10;;;;;;10410878;28;20385;-58
2023/11/16 23:07:10;;;;;;;3.25;1.88;;;15.80;74.10;;;;;;10410091;28;20028;-58
2023/11/16 23:12:10;;;;;;;4.32;1.40;;;15.70;74.00;;;;;;10410208;28;20060;-59
2023/11/16 23:17:11;;;;;;;2.78;1.33;;;15.70;74.00;;;;;;10410167;28;20071;-59
2023/11/16 23:22:12;;;;;;;1.85;1.15;;;15.70;74.00;;;;;;10409774;28;20396;-58
2023/11/16 23:27:13;;;;;;;2.55;1.75;;;15.70;74.00;;;;;;10410190;28;20033;-58
2023/11/16 23:32:14;;;;;;;3.60;1.63;;;15.70;74.00;;;;;;10422555;28;20073;-58
2023/11/16 23:37:15;;;;;;;1.40;1.20;;;15.70;74.10;;;;;;10409922;28;20804;-58
2023/11/16 23:42:16;;;;;;;3.95;1.40;;;15.60;73.90;;;;;;10409387;28;20664;-58
2023/11/16 23:47:18;;;;;;;2.45;1.52;;;15.60;73.90;;;;;;10409562;28;20168;-59
2023/11/16 23:52:19;;;;;;;3.63;1.25;;;15.60;74.00;;;;;;10408859;28;20026;-58
2023/11/16 23:57:21;;;;;;;2.50;1.50;;;15.60;74.00;;;;;;10409160;28;20023;-58
